createdAt,value
2023-07-16T00:00:37.343Z,7.75
2023-07-16T00:03:04.257Z,8.50
2023-07-16T00:05:31.176Z,7.63
2023-07-16T00:07:57.999Z,9.35
2023-07-16T00:10:24.978Z,12.80
2023-07-16T00:12:51.758Z,7.38
2023-07-16T00:15:19.282Z,7.50
2023-07-16T00:17:46.122Z,6.32
2023-07-16T00:20:13.210Z,7.95
2023-07-16T00:22:40.277Z,11.48
2023-07-16T00:25:08.337Z,6.22
2023-07-16T00:27:35.163Z,10.02
2023-07-16T00:30:02.044Z,6.38
2023-07-16T00:32:28.975Z,7.85
2023-07-16T00:34:56.207Z,4.07
2023-07-16T00:37:23.118Z,9.75
2023-07-16T00:39:50.024Z,9.40
2023-07-16T00:42:17.049Z,7.63
2023-07-16T00:44:43.910Z,8.77
2023-07-16T00:47:11.036Z,3.47
2023-07-16T00:49:39.684Z,4.90
2023-07-16T00:52:13.624Z,7.63
2023-07-16T00:54:40.676Z,4.55
2023-07-16T00:57:09.086Z,4.60
2023-07-16T00:59:37.033Z,3.90
2023-07-16T01:02:04.088Z,6.28
2023-07-16T01:04:31.989Z,4.05
2023-07-16T01:07:02.810Z,4.05
2023-07-16T01:09:30.576Z,8.73
2023-07-16T01:12:00.370Z,4.70
2023-07-16T01:14:28.289Z,5.30
2023-07-16T01:17:00.089Z,2.70
2023-07-16T01:19:27.352Z,2.95
2023-07-16T01:22:15.756Z,5.55
2023-07-16T01:25:01.618Z,5.20
2023-07-16T01:28:00.374Z,2.15
2023-07-16T01:30:28.739Z,8.95
2023-07-16T01:32:56.981Z,5.80
2023-07-16T01:35:24.597Z,5.82
2023-07-16T01:37:51.599Z,4.97
2023-07-16T01:40:18.490Z,3.28
2023-07-16T01:42:45.350Z,11.55
2023-07-16T01:45:12.263Z,8.15
2023-07-16T01:48:06.969Z,3.85
2023-07-16T01:50:37.183Z,3.70
2023-07-16T01:53:04.032Z,8.23
2023-07-16T01:55:31.050Z,3.95
2023-07-16T01:57:57.903Z,6.38
2023-07-16T02:00:24.727Z,4.97
2023-07-16T02:02:51.833Z,6.65
2023-07-16T02:05:19.044Z,3.90
2023-07-16T02:07:45.846Z,1.88
2023-07-16T02:10:12.904Z,4.30
2023-07-16T02:12:39.782Z,3.05
2023-07-16T02:15:07.171Z,3.10
2023-07-16T02:17:37.617Z,3.60
2023-07-16T02:20:07.899Z,5.32
2023-07-16T02:22:37.625Z,3.38
2023-07-16T02:25:05.090Z,2.08
2023-07-16T02:27:31.882Z,5.22
2023-07-16T02:30:00.171Z,3.53
2023-07-16T02:32:27.009Z,3.55
2023-07-16T02:34:53.936Z,2.10
2023-07-16T02:37:20.755Z,3.95
2023-07-16T02:39:49.008Z,1.65
2023-07-16T02:42:16.226Z,1.95
2023-07-16T02:44:46.186Z,6.97
2023-07-16T02:47:13.501Z,2.30
2023-07-16T02:49:40.706Z,6.43
2023-07-16T02:52:08.391Z,4.95
2023-07-16T02:54:36.656Z,5.15
2023-07-16T02:57:04.027Z,2.13
2023-07-16T02:59:30.871Z,2.28
2023-07-16T03:01:58.017Z,2.97
2023-07-16T03:04:25.110Z,1.75
2023-07-16T03:06:53.060Z,2.47
2023-07-16T03:09:19.993Z,2.03
2023-07-16T03:11:46.859Z,4.85
2023-07-16T03:14:14.808Z,2.85
2023-07-16T03:16:41.876Z,1.73
2023-07-16T03:19:10.152Z,2.83
2023-07-16T03:21:36.933Z,3.13
2023-07-16T03:24:03.928Z,3.42
2023-07-16T03:26:30.908Z,1.42
2023-07-16T03:28:58.698Z,3.25
2023-07-16T03:31:25.534Z,3.40
2023-07-16T03:33:52.472Z,1.50
2023-07-16T03:36:19.884Z,2.88
2023-07-16T03:38:46.789Z,2.88
2023-07-16T03:41:13.683Z,1.35
2023-07-16T03:43:40.474Z,3.35
2023-07-16T03:46:17.160Z,2.08
2023-07-16T03:48:44.323Z,4.80
2023-07-16T03:51:11.431Z,2.20
2023-07-16T03:53:38.226Z,2.67
2023-07-16T03:56:05.546Z,0.90
2023-07-16T03:58:33.140Z,1.55
2023-07-16T04:01:02.539Z,3.33
2023-07-16T04:03:32.609Z,2.45
2023-07-16T04:06:04.041Z,3.70
2023-07-16T04:08:31.058Z,2.60
2023-07-16T04:10:58.001Z,5.25
2023-07-16T04:13:25.054Z,4.45
2023-07-16T04:15:54.248Z,2.88
2023-07-16T04:18:23.338Z,1.70
2023-07-16T04:20:50.235Z,2.60
2023-07-16T04:23:17.173Z,1.58
2023-07-16T04:25:44.071Z,3.63
2023-07-16T04:28:12.285Z,2.13
2023-07-16T04:30:39.464Z,1.30
2023-07-16T04:33:06.455Z,1.00
2023-07-16T04:35:34.860Z,2.60
2023-07-16T04:38:01.725Z,1.52
2023-07-16T04:40:30.886Z,1.70
2023-07-16T04:42:57.918Z,2.28
2023-07-16T04:45:24.752Z,2.47
2023-07-16T04:47:51.749Z,1.48
2023-07-16T04:50:18.616Z,2.85
2023-07-16T04:52:46.324Z,1.35
2023-07-16T04:55:13.572Z,2.25
2023-07-16T04:57:41.103Z,2.45
2023-07-16T05:00:09.292Z,1.42
2023-07-16T05:02:36.471Z,2.90
2023-07-16T05:05:03.542Z,1.00
2023-07-16T05:07:30.658Z,0.98
2023-07-16T05:09:58.065Z,1.50
2023-07-16T05:12:24.955Z,2.03
2023-07-16T05:14:52.747Z,1.42
2023-07-16T05:17:19.728Z,1.90
2023-07-16T05:19:46.756Z,5.70
2023-07-16T05:22:13.650Z,2.63
2023-07-16T05:24:40.542Z,7.97
2023-07-16T05:27:07.366Z,9.82
2023-07-16T05:29:34.289Z,4.75
2023-07-16T05:32:01.248Z,3.25
2023-07-16T05:34:28.223Z,2.35
2023-07-16T05:36:56.037Z,2.75
2023-07-16T05:39:23.455Z,2.78
2023-07-16T05:41:50.347Z,1.95
2023-07-16T05:44:18.639Z,2.75
2023-07-16T05:46:45.557Z,1.83
2023-07-16T05:49:12.493Z,3.25
2023-07-16T05:51:39.560Z,1.85
2023-07-16T05:54:07.680Z,1.27
2023-07-16T05:56:34.505Z,1.80
2023-07-16T05:59:01.387Z,2.58
2023-07-16T06:01:28.286Z,1.30
2023-07-16T06:03:55.279Z,1.42
2023-07-16T06:06:22.104Z,0.70
2023-07-16T06:08:49.598Z,1.45
2023-07-16T06:11:16.578Z,3.08
2023-07-16T06:13:43.806Z,1.00
2023-07-16T06:16:10.631Z,1.70
2023-07-16T06:18:37.553Z,0.95
2023-07-16T06:21:04.326Z,0.88
2023-07-16T06:23:31.194Z,1.48
2023-07-16T06:25:58.082Z,1.50
2023-07-16T06:28:25.061Z,1.40
2023-07-16T06:30:55.183Z,1.55
2023-07-16T06:33:22.308Z,0.88
2023-07-16T06:35:49.548Z,1.30
2023-07-16T06:38:16.488Z,1.42
2023-07-16T06:40:50.788Z,1.35
2023-07-16T06:43:18.099Z,0.93
2023-07-16T06:45:45.486Z,2.13
2023-07-16T06:48:12.422Z,0.55
2023-07-16T06:50:39.270Z,1.15
2023-07-16T06:53:06.089Z,2.67
2023-07-16T06:55:32.944Z,0.20
2023-07-16T06:57:59.722Z,2.10
2023-07-16T07:00:26.607Z,8.98
2023-07-16T07:02:53.547Z,12.73
2023-07-16T07:05:20.549Z,11.82
2023-07-16T07:07:47.323Z,14.82
2023-07-16T07:10:14.789Z,11.18
2023-07-16T07:12:41.656Z,13.80
2023-07-16T07:15:11.454Z,9.30
2023-07-16T07:17:38.434Z,11.15
2023-07-16T07:20:05.944Z,3.75
2023-07-16T07:22:33.013Z,6.07
2023-07-16T07:25:00.047Z,7.38
2023-07-16T07:27:27.127Z,6.32
2023-07-16T07:29:54.233Z,6.00
2023-07-16T07:32:23.516Z,8.05
2023-07-16T07:34:51.557Z,9.70
2023-07-16T07:37:18.905Z,11.30
2023-07-16T07:39:48.877Z,4.50
2023-07-16T07:42:15.845Z,4.55
2023-07-16T07:44:42.737Z,8.45
2023-07-16T07:47:09.947Z,9.95
2023-07-16T07:49:36.925Z,6.53
2023-07-16T07:52:03.980Z,6.80
2023-07-16T07:54:33.209Z,6.47
2023-07-16T07:57:05.048Z,6.32
2023-07-16T07:59:32.931Z,5.43
2023-07-16T08:02:00.102Z,4.43
2023-07-16T08:04:27.248Z,4.38
2023-07-16T08:06:55.281Z,5.18
2023-07-16T08:09:22.095Z,2.03
2023-07-16T08:11:49.025Z,2.92
2023-07-16T08:14:16.023Z,2.60
2023-07-16T08:16:42.905Z,2.15
2023-07-16T08:19:10.792Z,2.22
2023-07-16T08:21:39.024Z,1.05
2023-07-16T08:24:08.796Z,15.30
2023-07-16T08:26:35.720Z,1.88
2023-07-16T08:29:02.512Z,3.22
2023-07-16T08:31:29.561Z,2.92
2023-07-16T08:33:57.180Z,0.85
2023-07-16T08:36:24.744Z,0.68
2023-07-16T08:38:53.185Z,0.77
2023-07-16T08:41:20.359Z,1.77
2023-07-16T08:43:49.437Z,1.95
2023-07-16T08:46:19.638Z,0.98
2023-07-16T08:48:48.045Z,1.90
2023-07-16T08:51:16.227Z,9.45
2023-07-16T08:53:43.502Z,1.38
2023-07-16T08:56:10.745Z,1.67
2023-07-16T08:58:39.805Z,1.50
2023-07-16T09:01:07.237Z,1.30
2023-07-16T09:03:34.645Z,1.13
2023-07-16T09:06:03.719Z,1.17
2023-07-16T09:08:30.757Z,0.60
2023-07-16T09:10:58.313Z,0.45
2023-07-16T09:13:29.329Z,0.75
2023-07-16T09:15:57.784Z,0.90
2023-07-16T09:18:28.374Z,1.95
2023-07-16T09:21:01.409Z,0.55
2023-07-16T09:23:29.135Z,0.77
2023-07-16T09:25:57.371Z,0.63
2023-07-16T09:28:24.401Z,0.90
2023-07-16T09:30:52.595Z,0.57
2023-07-16T09:33:24.009Z,0.93
2023-07-16T09:35:52.218Z,0.20
2023-07-16T09:38:19.699Z,0.80
2023-07-16T09:40:47.020Z,0.63
2023-07-16T09:43:14.374Z,0.82
2023-07-16T09:45:42.229Z,1.20
2023-07-16T09:48:09.997Z,0.50
2023-07-16T09:50:38.310Z,0.90
2023-07-16T09:53:06.008Z,0.40
2023-07-16T09:55:37.417Z,0.90
2023-07-16T09:58:10.103Z,2.20
2023-07-16T10:00:38.835Z,0.73
2023-07-16T10:03:08.977Z,0.50
2023-07-16T10:05:39.284Z,1.67
2023-07-16T10:08:06.243Z,0.70
2023-07-16T10:10:41.594Z,1.25
2023-07-16T10:13:09.694Z,1.58
2023-07-16T10:15:36.494Z,1.45
2023-07-16T10:18:03.443Z,0.68
2023-07-16T10:20:37.628Z,1.65
2023-07-16T10:23:15.184Z,2.40
2023-07-16T10:25:58.746Z,0.40
2023-07-16T10:28:25.618Z,1.58
2023-07-16T10:30:52.786Z,2.05
2023-07-16T10:33:20.211Z,0.63
2023-07-16T10:35:47.380Z,0.63
2023-07-16T10:38:17.836Z,0.40
2023-07-16T10:40:46.228Z,1.23
2023-07-16T10:43:13.952Z,0.25
2023-07-16T10:45:40.980Z,0.30
2023-07-16T10:48:08.311Z,0.57
2023-07-16T10:50:36.766Z,0.70
2023-07-16T10:53:03.613Z,0.55
2023-07-16T10:55:36.366Z,0.68
2023-07-16T10:58:05.651Z,2.05
2023-07-16T11:00:32.510Z,0.40
2023-07-16T11:02:59.572Z,0.17
2023-07-16T11:05:26.691Z,0.35
2023-07-16T11:07:55.335Z,1.52
2023-07-16T11:10:25.523Z,1.95
2023-07-16T11:12:54.220Z,0.60
2023-07-16T11:15:36.656Z,0.30
2023-07-16T11:18:03.992Z,4.15
2023-07-16T11:20:31.840Z,0.93
2023-07-16T11:23:01.551Z,2.78
2023-07-16T11:25:28.766Z,2.58
2023-07-16T11:27:57.506Z,5.68
2023-07-16T11:30:26.031Z,2.28
2023-07-16T11:32:53.365Z,2.40
2023-07-16T11:35:21.532Z,1.58
2023-07-16T11:37:48.950Z,4.25
2023-07-16T11:40:20.647Z,3.58
2023-07-16T11:42:49.450Z,2.70
2023-07-16T11:45:21.812Z,6.22
2023-07-16T11:48:07.958Z,5.38
2023-07-16T11:50:34.957Z,15.00
2023-07-16T11:53:05.662Z,17.20
2023-07-16T11:55:32.430Z,19.88
2023-07-16T11:58:00.802Z,9.30
2023-07-16T12:00:27.988Z,9.82
2023-07-16T12:02:54.812Z,12.30
2023-07-16T12:05:37.234Z,12.43
2023-07-16T12:08:15.311Z,6.82
2023-07-16T12:10:42.873Z,1.17
2023-07-16T12:13:09.736Z,0.95
2023-07-16T12:15:36.547Z,1.73
2023-07-16T12:18:04.327Z,0.40
2023-07-16T12:20:31.429Z,1.08
2023-07-16T12:22:58.249Z,0.95
2023-07-16T12:25:25.461Z,0.30
2023-07-16T12:27:54.867Z,0.57
2023-07-16T12:30:23.169Z,1.05
2023-07-16T12:32:50.088Z,1.05
2023-07-16T12:35:17.068Z,1.33
2023-07-16T12:37:44.020Z,1.15
2023-07-16T12:40:11.149Z,0.88
2023-07-16T12:42:38.000Z,0.88
2023-07-16T12:45:05.250Z,1.30
2023-07-16T12:47:33.326Z,0.60
2023-07-16T12:50:00.114Z,1.42
2023-07-16T12:52:27.143Z,0.45
2023-07-16T12:54:55.191Z,0.40
2023-07-16T12:57:24.150Z,0.77
2023-07-16T12:59:50.997Z,0.30
2023-07-16T13:02:17.834Z,0.65
2023-07-16T13:04:44.659Z,0.47
2023-07-16T13:07:11.408Z,1.05
2023-07-16T13:09:38.189Z,7.90
2023-07-16T13:12:05.466Z,2.78
2023-07-16T13:14:32.191Z,3.90
2023-07-16T13:16:59.118Z,1.85
2023-07-16T13:19:25.918Z,0.90
2023-07-16T13:21:52.812Z,0.38
2023-07-16T13:24:19.715Z,0.82
2023-07-16T13:26:48.847Z,1.05
2023-07-16T13:29:16.037Z,0.25
2023-07-16T13:31:42.865Z,1.25
2023-07-16T13:34:09.754Z,3.13
2023-07-16T13:36:36.634Z,0.95
2023-07-16T13:39:06.256Z,0.30
2023-07-16T13:41:33.371Z,1.15
2023-07-16T13:44:01.308Z,1.15
2023-07-16T13:46:28.230Z,0.75
2023-07-16T13:48:59.032Z,0.38
2023-07-16T13:51:27.314Z,0.85
2023-07-16T13:53:54.284Z,1.40
2023-07-16T13:56:21.182Z,0.70
2023-07-16T13:58:49.110Z,1.85
2023-07-16T14:01:16.108Z,0.85
2023-07-16T14:03:43.226Z,0.30
2023-07-16T14:06:10.170Z,0.80
2023-07-16T14:08:37.358Z,0.68
2023-07-16T14:11:04.399Z,0.50
2023-07-16T14:13:31.979Z,2.15
2023-07-16T14:15:58.982Z,1.02
2023-07-16T14:18:25.723Z,1.08
2023-07-16T14:20:52.590Z,0.20
2023-07-16T14:23:19.351Z,0.73
2023-07-16T14:25:46.294Z,0.30
2023-07-16T14:28:13.058Z,1.58
2023-07-16T14:30:39.896Z,2.60
2023-07-16T14:33:06.822Z,1.45
2023-07-16T14:35:37.560Z,0.25
2023-07-16T14:40:32.485Z,2.70
2023-07-16T14:42:59.638Z,1.65
2023-07-16T14:45:26.838Z,1.48
2023-07-16T14:47:53.987Z,0.20
2023-07-16T14:50:20.924Z,2.70
2023-07-16T14:52:47.738Z,1.48
2023-07-16T14:55:16.518Z,4.35
2023-07-16T14:57:43.670Z,0.30
2023-07-16T15:00:12.938Z,2.08
2023-07-16T15:02:40.040Z,0.75
2023-07-16T15:05:08.078Z,0.28
2023-07-16T15:07:36.766Z,0.32
2023-07-16T15:10:05.598Z,0.55
2023-07-16T15:12:33.135Z,0.10
2023-07-16T15:15:00.278Z,3.95
2023-07-16T15:17:27.576Z,0.30
2023-07-16T15:19:54.467Z,1.65
2023-07-16T15:22:21.806Z,1.70
2023-07-16T15:24:49.185Z,1.13
2023-07-16T15:27:16.907Z,1.55
2023-07-16T15:29:43.646Z,3.28
2023-07-16T15:32:10.443Z,2.47
2023-07-16T15:34:37.311Z,4.70
2023-07-16T15:37:05.315Z,3.35
2023-07-16T15:39:32.172Z,1.92
2023-07-16T15:41:59.005Z,4.70
2023-07-16T15:44:26.846Z,1.90
2023-07-16T15:46:53.619Z,0.90
2023-07-16T15:49:20.605Z,0.80
2023-07-16T15:51:47.434Z,0.85
2023-07-16T15:54:14.271Z,0.75
2023-07-16T15:56:42.448Z,0.55
2023-07-16T15:59:09.463Z,3.00
2023-07-16T16:01:36.560Z,1.90
2023-07-16T16:04:03.861Z,1.90
2023-07-16T16:06:30.829Z,2.35
2023-07-16T16:08:58.177Z,2.67
2023-07-16T16:11:25.665Z,2.28
2023-07-16T16:13:54.151Z,2.40
2023-07-16T16:16:27.303Z,4.63
2023-07-16T16:19:02.738Z,1.58
2023-07-16T16:21:29.720Z,1.85
2023-07-16T16:23:56.495Z,3.70
2023-07-16T16:26:27.994Z,2.42
2023-07-16T16:28:58.514Z,1.63
2023-07-16T16:31:28.582Z,1.35
2023-07-16T16:33:55.474Z,1.85
2023-07-16T16:36:22.272Z,1.65
2023-07-16T16:38:49.621Z,1.00
2023-07-16T16:41:16.743Z,0.75
2023-07-16T16:43:45.155Z,2.10
2023-07-16T16:46:12.634Z,2.50
2023-07-16T16:48:39.971Z,5.25
2023-07-16T16:51:06.750Z,3.30
2023-07-16T16:53:33.654Z,4.05
2023-07-16T16:56:05.834Z,2.50
2023-07-16T16:58:33.003Z,3.67
2023-07-16T17:01:00.151Z,2.80
2023-07-16T17:03:27.054Z,2.03
2023-07-16T17:06:01.393Z,3.80
2023-07-16T17:08:28.628Z,3.97
2023-07-16T17:10:55.436Z,3.75
2023-07-16T17:13:22.308Z,2.58
2023-07-16T17:15:50.378Z,2.38
2023-07-16T17:18:17.951Z,1.75
2023-07-16T17:20:44.787Z,3.38
2023-07-16T17:23:12.543Z,2.50
2023-07-16T17:25:39.547Z,1.08
2023-07-16T17:28:06.615Z,2.08
2023-07-16T17:30:33.620Z,2.72
2023-07-16T17:33:00.425Z,3.45
2023-07-16T17:35:28.514Z,4.82
2023-07-16T17:37:55.968Z,4.13
2023-07-16T17:40:25.563Z,4.40
2023-07-16T17:42:55.270Z,1.95
2023-07-16T17:45:22.225Z,2.05
2023-07-16T17:47:49.075Z,1.40
2023-07-16T17:50:16.014Z,1.35
2023-07-16T17:52:42.779Z,0.80
2023-07-16T17:55:11.321Z,0.55
2023-07-16T17:57:38.150Z,1.45
2023-07-16T18:00:22.652Z,1.88
2023-07-16T18:02:50.834Z,0.52
2023-07-16T18:05:19.459Z,0.65
2023-07-16T18:07:46.555Z,0.30
2023-07-16T18:10:13.395Z,1.95
2023-07-16T18:12:40.180Z,1.38
2023-07-16T18:15:07.431Z,0.43
2023-07-16T18:17:34.324Z,4.35
2023-07-16T18:20:01.344Z,0.80
2023-07-16T18:22:30.959Z,3.42
2023-07-16T18:24:59.013Z,0.85
2023-07-16T18:27:26.584Z,3.47
2023-07-16T18:29:53.752Z,0.55
2023-07-16T18:32:20.779Z,2.53
2023-07-16T18:34:48.757Z,0.47
2023-07-16T18:37:21.546Z,0.20
2023-07-16T18:39:48.456Z,2.90
2023-07-16T18:42:18.047Z,1.40
2023-07-16T18:44:45.965Z,2.13
2023-07-16T18:47:13.700Z,1.10
2023-07-16T18:49:40.500Z,0.80
2023-07-16T18:52:08.206Z,0.85
2023-07-16T18:54:34.981Z,2.17
2023-07-16T18:57:06.269Z,1.30
2023-07-16T18:59:33.082Z,2.65
2023-07-16T19:01:59.858Z,0.50
2023-07-16T19:04:26.935Z,1.65
2023-07-16T19:06:54.294Z,1.40
2023-07-16T19:09:22.341Z,0.28
2023-07-16T19:11:51.670Z,0.45
2023-07-16T19:14:19.140Z,1.92
2023-07-16T19:16:46.129Z,2.15
2023-07-16T19:19:13.168Z,3.00
2023-07-16T19:21:40.413Z,1.00
2023-07-16T19:24:07.188Z,0.40
2023-07-16T19:26:36.975Z,1.02
2023-07-16T19:29:03.835Z,1.23
2023-07-16T19:31:30.853Z,0.50
2023-07-16T19:33:57.873Z,0.50
2023-07-16T19:36:25.095Z,0.25
2023-07-16T19:38:51.926Z,0.32
2023-07-16T19:41:18.882Z,0.88
2023-07-16T19:43:45.834Z,0.73
2023-07-16T19:46:12.645Z,0.20
2023-07-16T19:48:40.721Z,1.50
2023-07-16T19:51:07.771Z,0.88
2023-07-16T19:53:34.727Z,0.28
2023-07-16T19:56:01.706Z,1.08
2023-07-16T19:58:31.526Z,0.80
2023-07-16T20:01:01.442Z,0.25
2023-07-16T20:03:31.337Z,0.80
2023-07-16T20:06:01.168Z,1.65
2023-07-16T20:08:28.126Z,0.43
2023-07-16T20:10:55.321Z,0.52
2023-07-16T20:13:31.261Z,4.97
2023-07-16T20:15:59.914Z,0.22
2023-07-16T20:18:29.448Z,0.57
2023-07-16T20:20:57.314Z,0.30
2023-07-16T20:23:26.586Z,0.38
2023-07-16T20:25:53.814Z,0.30
2023-07-16T20:28:20.833Z,0.40
2023-07-16T20:30:47.942Z,0.20
2023-07-16T20:33:14.745Z,1.45
2023-07-16T20:35:45.134Z,0.63
2023-07-16T20:38:11.935Z,1.77
2023-07-16T20:40:38.746Z,3.40
2023-07-16T20:43:05.572Z,0.30
2023-07-16T20:45:32.425Z,1.02
2023-07-16T20:48:03.216Z,2.10
2023-07-16T20:50:32.583Z,1.65
2023-07-16T20:53:00.100Z,0.57
2023-07-16T20:55:27.396Z,0.90
2023-07-16T20:57:55.221Z,6.30
2023-07-16T21:00:26.672Z,2.30
2023-07-16T21:02:56.058Z,0.98
2023-07-16T21:05:25.114Z,2.28
2023-07-16T21:07:52.585Z,1.45
2023-07-16T21:10:27.423Z,2.03
2023-07-16T21:13:06.600Z,2.85
2023-07-16T21:15:34.435Z,1.75
2023-07-16T21:18:05.963Z,1.38
2023-07-16T21:20:38.689Z,2.58
2023-07-16T21:23:05.567Z,1.42
2023-07-16T21:25:32.481Z,4.40
2023-07-16T21:28:01.446Z,2.78
2023-07-16T21:30:30.258Z,0.75
2023-07-16T21:32:57.567Z,1.50
2023-07-16T21:35:25.876Z,0.50
2023-07-16T21:37:55.420Z,2.35
2023-07-16T21:40:22.570Z,1.55
2023-07-16T21:42:52.003Z,4.07
2023-07-16T21:45:19.843Z,0.98
2023-07-16T21:47:47.165Z,1.55
2023-07-16T21:50:14.238Z,0.80
2023-07-16T21:52:41.454Z,2.88
2023-07-16T21:55:08.787Z,1.65
2023-07-16T21:57:35.680Z,0.88
2023-07-16T22:00:02.511Z,0.93
2023-07-16T22:02:41.210Z,1.05
2023-07-16T22:05:08.612Z,3.47
2023-07-16T22:07:35.737Z,1.88
2023-07-16T22:10:02.641Z,1.52
2023-07-16T22:12:29.414Z,0.60
2023-07-16T22:14:56.955Z,0.90
2023-07-16T22:17:25.423Z,1.02
2023-07-16T22:19:52.317Z,1.17
2023-07-16T22:22:19.074Z,3.22
2023-07-16T22:24:45.947Z,1.65
2023-07-16T22:27:12.751Z,1.85
2023-07-16T22:29:39.572Z,2.65
2023-07-16T22:32:06.812Z,1.73
2023-07-16T22:34:33.711Z,0.47
2023-07-16T22:37:00.677Z,3.90
2023-07-16T22:39:27.577Z,1.73
2023-07-16T22:41:54.382Z,0.63
2023-07-16T22:44:21.132Z,1.80
2023-07-16T22:46:47.960Z,0.93
2023-07-16T22:49:14.703Z,2.00
2023-07-16T22:51:41.485Z,0.40
2023-07-16T22:54:08.367Z,0.63
2023-07-16T22:56:36.849Z,7.68
2023-07-16T22:59:03.736Z,2.70
2023-07-16T23:01:30.734Z,0.85
2023-07-16T23:03:57.546Z,0.70
2023-07-16T23:06:24.421Z,3.13
2023-07-16T23:08:51.212Z,0.25
2023-07-16T23:11:18.135Z,0.93
2023-07-16T23:13:45.074Z,0.55
2023-07-16T23:16:12.776Z,1.00
2023-07-16T23:18:39.667Z,1.17
2023-07-16T23:21:06.546Z,0.17
2023-07-16T23:23:35.403Z,1.23
2023-07-16T23:26:02.284Z,1.25
2023-07-16T23:28:29.150Z,3.72
2023-07-16T23:30:56.086Z,1.52
2023-07-16T23:33:22.939Z,0.75
2023-07-16T23:35:49.784Z,0.45
2023-07-16T23:38:16.816Z,0.10
2023-07-16T23:40:43.733Z,2.22
2023-07-16T23:43:10.459Z,1.70
2023-07-16T23:45:37.535Z,1.05
2023-07-16T23:48:05.506Z,1.00
2023-07-16T23:50:32.752Z,0.52
2023-07-16T23:52:59.591Z,0.73
2023-07-16T23:55:26.398Z,0.13
2023-07-16T23:57:53.321Z,0.68
